Time;durP1;ratioP1;P1;durP2;ratioP2;P2;SDS_P1;SDS_P2;PMS_P1;PMS_P2;Temp;Humidity;BMP_temperature;BMP_pressure;BME280_temperature;BME280_humidity;BME280_pressure;Samples;Min_cycle;Max_cycle;Signal;HPM_P1;HPM_P2
2023/10/31 00:01:55;;;;;;;8.45;3.40;;;10.20;99.90;;;;;;5017043;28;20022;-72
2023/10/31 00:04:21;;;;;;;9.77;3.80;;;10.30;99.90;;;;;;5027612;28;20048;-73
2023/10/31 00:06:46;;;;;;;12.32;3.58;;;10.30;99.90;;;;;;5011238;28;20029;-72
2023/10/31 00:09:12;;;;;;;10.15;3.55;;;10.30;99.90;;;;;;5010469;28;20499;-73
2023/10/31 00:11:38;;;;;;;11.82;3.65;;;10.30;99.90;;;;;;5036364;28;20172;-73
2023/10/31 00:14:03;;;;;;;9.43;3.85;;;10.30;99.90;;;;;;5047845;28;20498;-73
2023/10/31 00:16:29;;;;;;;8.35;3.80;;;10.40;99.90;;;;;;5048056;28;20032;-72
2023/10/31 00:18:55;;;;;;;11.00;3.97;;;10.30;99.90;;;;;;5030924;28;20040;-73
2023/10/31 00:21:20;;;;;;;8.15;3.30;;;10.30;99.90;;;;;;5022241;28;20043;-73
2023/10/31 00:23:47;;;;;;;7.35;3.38;;;10.30;99.90;;;;;;5044638;28;20036;-73
2023/10/31 00:26:14;;;;;;;8.43;3.20;;;10.40;99.90;;;;;;5010395;28;20399;-73
2023/10/31 00:28:40;;;;;;;9.05;3.25;;;10.40;99.90;;;;;;5048373;28;20033;-72
2023/10/31 00:31:07;;;;;;;8.02;2.88;;;10.40;99.90;;;;;;5009978;28;20047;-72
2023/10/31 00:33:34;;;;;;;6.13;2.50;;;10.40;99.90;;;;;;5047505;28;20040;-73
2023/10/31 00:35:59;;;;;;;6.43;2.13;;;10.40;99.90;;;;;;5049976;28;20048;-73
2023/10/31 00:38:25;;;;;;;7.47;1.75;;;10.40;99.90;;;;;;5049030;28;20024;-74
2023/10/31 00:40:51;;;;;;;3.28;1.40;;;10.40;99.90;;;;;;5035981;28;20502;-73
2023/10/31 00:43:16;;;;;;;3.67;0.90;;;10.40;99.90;;;;;;5028116;28;20037;-73
2023/10/31 00:45:42;;;;;;;5.82;0.77;;;10.40;99.90;;;;;;5047142;28;20031;-73
2023/10/31 00:48:07;;;;;;;5.05;0.80;;;10.40;99.90;;;;;;5024308;28;20397;-72
2023/10/31 00:50:33;;;;;;;3.30;0.55;;;10.40;99.90;;;;;;5047115;28;20098;-73
2023/10/31 00:52:58;;;;;;;3.97;0.55;;;10.40;99.90;;;;;;5041743;28;20102;-72
2023/10/31 00:55:24;;;;;;;4.03;0.70;;;10.30;99.90;;;;;;5024309;28;20033;-74
2023/10/31 00:57:50;;;;;;;3.30;0.52;;;10.30;99.90;;;;;;5030352;28;20113;-74
2023/10/31 01:00:16;;;;;;;5.90;0.88;;;10.30;99.90;;;;;;5047274;28;20976;-71
2023/10/31 01:02:42;;;;;;;8.20;1.27;;;10.30;99.90;;;;;;5025893;28;20042;-73
2023/10/31 01:05:08;;;;;;;6.68;1.15;;;10.30;99.90;;;;;;5013823;28;20033;-72
2023/10/31 01:07:34;;;;;;;6.70;1.65;;;10.30;99.90;;;;;;5028247;28;20716;-72
2023/10/31 01:10:00;;;;;;;4.80;1.77;;;10.30;99.90;;;;;;5010578;28;20505;-73
2023/10/31 01:12:27;;;;;;;11.35;3.20;;;10.20;99.90;;;;;;5009627;28;20084;-74
2023/10/31 01:14:54;;;;;;;14.15;3.47;;;10.30;99.90;;;;;;5011151;28;20029;-72
2023/10/31 01:17:20;;;;;;;9.68;3.85;;;10.30;99.90;;;;;;5009133;28;20545;-72
2023/10/31 01:19:46;;;;;;;12.80;4.07;;;10.30;99.90;;;;;;5010323;28;20053;-73
2023/10/31 01:22:11;;;;;;;14.60;5.25;;;10.30;99.90;;;;;;5010283;28;20499;-74
2023/10/31 01:24:37;;;;;;;14.60;5.40;;;10.30;99.90;;;;;;5047790;28;20040;-73
2023/10/31 01:27:02;;;;;;;16.67;5.78;;;10.30;99.90;;;;;;5033322;28;20040;-73
2023/10/31 01:29:28;;;;;;;15.50;4.72;;;10.30;99.90;;;;;;5050775;28;20029;-74
2023/10/31 01:31:54;;;;;;;17.77;6.07;;;10.30;99.90;;;;;;5056989;28;20090;-74
2023/10/31 01:34:20;;;;;;;14.63;4.80;;;10.30;99.90;;;;;;5049125;28;20071;-72
2023/10/31 01:36:45;;;;;;;11.63;4.65;;;10.30;99.90;;;;;;5071656;28;20060;-72
2023/10/31 01:39:11;;;;;;;12.90;4.85;;;10.30;99.90;;;;;;5039836;28;20407;-73
2023/10/31 01:41:36;;;;;;;13.95;4.97;;;10.30;99.90;;;;;;5042664;28;20108;-74
2023/10/31 01:44:02;;;;;;;17.45;5.28;;;10.30;99.90;;;;;;5050601;28;20033;-73
2023/10/31 01:46:28;;;;;;;10.98;4.22;;;10.40;99.90;;;;;;5049399;28;20045;-74
2023/10/31 01:48:53;;;;;;;14.20;3.90;;;10.40;99.90;;;;;;5051757;28;20029;-73
2023/10/31 01:51:19;;;;;;;16.52;4.35;;;10.40;99.90;;;;;;5051822;28;20058;-71
2023/10/31 01:53:44;;;;;;;14.88;4.13;;;10.40;99.90;;;;;;5057616;28;20033;-73
2023/10/31 01:56:10;;;;;;;7.00;2.80;;;10.40;99.90;;;;;;5032942;28;20457;-72
2023/10/31 01:58:37;;;;;;;12.57;3.67;;;10.40;99.90;;;;;;5043515;28;20105;-72
2023/10/31 02:01:05;;;;;;;8.23;2.90;;;10.40;99.90;;;;;;5048659;28;20061;-72
2023/10/31 02:03:31;;;;;;;11.13;2.60;;;10.40;99.90;;;;;;5050321;28;20025;-71
2023/10/31 02:05:57;;;;;;;9.90;2.42;;;10.40;99.90;;;;;;5033190;28;20584;-74
2023/10/31 02:08:24;;;;;;;9.68;3.03;;;10.40;99.90;;;;;;5049934;28;20029;-73
2023/10/31 02:10:49;;;;;;;13.15;3.20;;;10.50;99.90;;;;;;5038681;28;20498;-73
2023/10/31 02:13:17;;;;;;;7.93;3.33;;;10.50;99.90;;;;;;5031753;28;20218;-73
2023/10/31 02:15:43;;;;;;;11.90;2.95;;;10.50;99.90;;;;;;5027746;28;20045;-72
2023/10/31 02:18:09;;;;;;;11.40;3.40;;;10.40;99.90;;;;;;5016803;28;20053;-73
2023/10/31 02:20:35;;;;;;;11.15;3.13;;;10.50;99.90;;;;;;5034277;28;20038;-73
2023/10/31 02:23:02;;;;;;;9.90;2.95;;;10.50;99.90;;;;;;5024641;28;20026;-74
2023/10/31 02:25:28;;;;;;;13.57;3.90;;;10.50;99.90;;;;;;5029684;28;20033;-73
2023/10/31 02:27:53;;;;;;;14.15;3.33;;;10.50;99.90;;;;;;5012827;28;20036;-73
2023/10/31 02:30:19;;;;;;;9.23;3.60;;;10.50;99.90;;;;;;5011806;28;20034;-72
2023/10/31 02:32:45;;;;;;;8.95;3.60;;;10.50;99.90;;;;;;5055428;28;20445;-74
2023/10/31 02:35:11;;;;;;;10.32;3.60;;;10.50;99.90;;;;;;5064319;28;20060;-74
2023/10/31 02:37:36;;;;;;;10.57;3.58;;;10.50;99.90;;;;;;5048616;28;20036;-73
2023/10/31 02:40:02;;;;;;;8.77;2.75;;;10.50;99.90;;;;;;5023968;28;20059;-72
2023/10/31 02:42:28;;;;;;;11.40;3.10;;;10.50;99.90;;;;;;5011972;28;20483;-74
2023/10/31 02:44:53;;;;;;;11.25;3.00;;;10.50;99.90;;;;;;5012076;28;20383;-72
2023/10/31 02:47:19;;;;;;;8.38;3.47;;;10.50;99.90;;;;;;5029288;28;20037;-71
2023/10/31 02:49:45;;;;;;;7.57;3.17;;;10.50;99.90;;;;;;5012552;28;20053;-71
2023/10/31 02:52:11;;;;;;;4.47;2.00;;;10.50;99.90;;;;;;5028181;28;20060;-74
2023/10/31 02:54:37;;;;;;;6.97;1.90;;;10.50;99.90;;;;;;5068871;28;20048;-74
2023/10/31 02:57:03;;;;;;;8.20;2.00;;;10.50;99.90;;;;;;5049683;28;20068;-72
2023/10/31 02:59:28;;;;;;;5.35;1.20;;;10.50;99.90;;;;;;5049261;28;20036;-74
2023/10/31 03:01:56;;;;;;;4.50;1.35;;;10.50;99.90;;;;;;5020034;28;20037;-72
2023/10/31 03:04:22;;;;;;;3.38;1.10;;;10.50;99.90;;;;;;5030828;28;20102;-72
2023/10/31 03:06:48;;;;;;;2.45;0.60;;;10.50;99.90;;;;;;5035735;28;20506;-72
2023/10/31 03:09:14;;;;;;;3.03;0.57;;;10.50;99.90;;;;;;5018990;28;20542;-72
2023/10/31 03:11:39;;;;;;;4.32;0.88;;;10.40;99.90;;;;;;5042281;28;20037;-72
2023/10/31 03:14:05;;;;;;;3.17;0.70;;;10.40;99.90;;;;;;5028043;28;20041;-72
2023/10/31 03:16:30;;;;;;;1.17;0.45;;;10.40;99.90;;;;;;5011935;28;20033;-72
2023/10/31 03:18:56;;;;;;;6.25;0.73;;;10.40;99.90;;;;;;5014822;28;20040;-73
2023/10/31 03:21:22;;;;;;;4.38;0.63;;;10.40;99.90;;;;;;5029270;28;20072;-72
2023/10/31 03:23:49;;;;;;;3.83;0.75;;;10.30;99.90;;;;;;5028986;28;20069;-71
2023/10/31 03:26:15;;;;;;;3.47;0.90;;;10.30;99.90;;;;;;5010467;28;20495;-73
2023/10/31 03:28:42;;;;;;;3.80;1.05;;;10.30;99.90;;;;;;5030407;28;20033;-73
2023/10/31 03:31:09;;;;;;;3.03;0.70;;;10.30;99.90;;;;;;5030787;28;20089;-74
2023/10/31 03:33:35;;;;;;;2.83;0.82;;;10.30;99.90;;;;;;5050681;28;20045;-72
2023/10/31 03:36:00;;;;;;;4.30;1.60;;;10.30;99.90;;;;;;5048741;28;20048;-71
2023/10/31 03:38:26;;;;;;;2.88;1.35;;;10.30;99.90;;;;;;5048384;28;20029;-72
2023/10/31 03:40:52;;;;;;;2.70;0.80;;;10.30;99.90;;;;;;5049488;28;20043;-73
2023/10/31 03:43:18;;;;;;;3.03;0.98;;;10.30;99.90;;;;;;5030044;28;20040;-73
2023/10/31 03:45:45;;;;;;;4.72;1.10;;;10.30;99.90;;;;;;5031115;28;20040;-72
2023/10/31 03:48:11;;;;;;;3.17;0.90;;;10.30;99.90;;;;;;5043756;28;20036;-73
2023/10/31 03:50:36;;;;;;;3.72;0.68;;;10.40;99.90;;;;;;5048391;28;20032;-73
2023/10/31 03:53:02;;;;;;;1.33;0.77;;;10.30;99.90;;;;;;5064055;28;20041;-73
2023/10/31 03:55:27;;;;;;;4.85;0.77;;;10.30;99.90;;;;;;5050134;28;20086;-72
2023/10/31 03:57:53;;;;;;;3.78;0.43;;;10.30;99.90;;;;;;5051161;28;20039;-73
2023/10/31 04:00:18;;;;;;;3.88;0.52;;;10.30;99.90;;;;;;5048622;28;20037;-73
2023/10/31 04:02:44;;;;;;;3.22;0.38;;;10.20;99.90;;;;;;5038572;28;20091;-73
2023/10/31 04:05:09;;;;;;;3.28;0.73;;;10.30;99.90;;;;;;5037189;28;20036;-73
2023/10/31 04:07:35;;;;;;;1.35;0.13;;;10.30;99.90;;;;;;5047892;28;20452;-74
2023/10/31 04:10:01;;;;;;;1.20;0.10;;;10.20;99.90;;;;;;5048441;28;20041;-73
2023/10/31 04:12:26;;;;;;;1.33;0.00;;;10.20;99.90;;;;;;5029417;28;20051;-72
2023/10/31 04:14:52;;;;;;;0.35;0.03;;;10.20;99.90;;;;;;5030252;28;20033;-72
2023/10/31 04:17:17;;;;;;;1.83;0.10;;;10.10;99.90;;;;;;5047192;28;20025;-74
2023/10/31 04:19:43;;;;;;;0.65;0.10;;;10.10;99.90;;;;;;5034330;28;20037;-73
2023/10/31 04:22:09;;;;;;;3.95;0.10;;;10.10;99.90;;;;;;5028071;28;20053;-73
2023/10/31 04:24:34;;;;;;;3.65;0.30;;;10.10;99.90;;;;;;5014110;28;20044;-72
2023/10/31 04:27:00;;;;;;;1.20;0.10;;;10.10;99.90;;;;;;5010549;28;20029;-73
2023/10/31 04:29:25;;;;;;;2.75;0.20;;;10.10;99.90;;;;;;5027795;28;20399;-73
2023/10/31 04:31:51;;;;;;;3.38;0.22;;;10.10;99.90;;;;;;5030044;28;20728;-73
2023/10/31 04:34:16;;;;;;;3.72;0.35;;;10.10;99.90;;;;;;5024783;28;20040;-73
2023/10/31 04:36:42;;;;;;;2.78;0.47;;;10.10;99.90;;;;;;5039803;28;20041;-73
2023/10/31 04:39:07;;;;;;;2.80;0.38;;;10.10;99.90;;;;;;5020356;28;20036;-73
2023/10/31 04:41:33;;;;;;;3.08;0.60;;;10.10;99.90;;;;;;5010594;28;20087;-74
2023/10/31 04:43:59;;;;;;;1.77;1.15;;;10.10;99.90;;;;;;5048410;28;20487;-74
2023/10/31 04:46:27;;;;;;;6.72;1.10;;;10.10;99.90;;;;;;5047243;28;20033;-74
2023/10/31 04:48:53;;;;;;;3.78;0.60;;;10.10;99.90;;;;;;5048544;28;20525;-74
2023/10/31 04:51:19;;;;;;;1.90;1.05;;;10.10;99.90;;;;;;5048222;28;20033;-74
2023/10/31 04:53:44;;;;;;;5.03;1.42;;;10.10;99.90;;;;;;5034762;28;20431;-72
2023/10/31 04:56:14;;;;;;;1.48;0.60;;;10.10;99.90;;;;;;5029398;28;20029;-73
2023/10/31 04:58:41;;;;;;;4.97;0.97;;;10.10;99.90;;;;;;5029330;28;20108;-72
2023/10/31 05:01:11;;;;;;;3.15;1.10;;;10.10;99.90;;;;;;5037157;28;20280;-75
2023/10/31 05:03:36;;;;;;;1.42;0.55;;;10.10;99.90;;;;;;5022914;28;20036;-73
2023/10/31 05:06:03;;;;;;;2.58;0.47;;;10.10;99.90;;;;;;5012687;28;20463;-73
2023/10/31 05:08:29;;;;;;;2.00;0.50;;;10.10;99.90;;;;;;5018112;28;20115;-72
2023/10/31 05:10:54;;;;;;;1.75;0.70;;;10.10;99.90;;;;;;5047768;28;20112;-72
2023/10/31 05:13:20;;;;;;;1.73;0.63;;;10.10;99.90;;;;;;5035057;28;20059;-73
2023/10/31 05:15:46;;;;;;;1.73;0.65;;;10.10;99.90;;;;;;5014137;28;20076;-73
2023/10/31 05:18:11;;;;;;;1.80;0.65;;;10.10;99.90;;;;;;5031431;28;20045;-75
2023/10/31 05:20:37;;;;;;;4.55;0.88;;;10.00;99.90;;;;;;5027144;28;20047;-73
2023/10/31 05:23:02;;;;;;;2.65;0.68;;;10.10;99.90;;;;;;5047529;28;20033;-73
2023/10/31 05:25:28;;;;;;;5.60;0.77;;;10.10;99.90;;;;;;5046622;28;20112;-72
2023/10/31 05:27:54;;;;;;;2.13;0.82;;;10.10;99.90;;;;;;5029944;28;20037;-72
2023/10/31 05:30:19;;;;;;;4.13;1.10;;;10.00;99.90;;;;;;5028848;28;20078;-74
2023/10/31 05:32:45;;;;;;;4.25;0.98;;;10.10;99.90;;;;;;5049799;28;20056;-73
2023/10/31 05:35:11;;;;;;;4.10;1.40;;;10.10;99.90;;;;;;5013008;28;20626;-72
2023/10/31 05:37:36;;;;;;;5.55;2.00;;;10.10;99.90;;;;;;5027621;28;20036;-73
2023/10/31 05:40:02;;;;;;;7.30;2.65;;;10.10;99.90;;;;;;5022204;28;20029;-73
2023/10/31 05:42:28;;;;;;;9.13;2.60;;;10.10;99.90;;;;;;5045995;28;20029;-73
2023/10/31 05:44:55;;;;;;;9.38;2.33;;;10.10;99.90;;;;;;5029906;28;20062;-73
2023/10/31 05:47:20;;;;;;;5.63;1.52;;;10.00;99.90;;;;;;5007887;28;20467;-74
2023/10/31 05:49:47;;;;;;;5.18;1.70;;;10.10;99.90;;;;;;5008663;28;20037;-74
2023/10/31 05:52:12;;;;;;;7.72;1.75;;;10.00;99.90;;;;;;5049221;28;20035;-73
2023/10/31 05:54:38;;;;;;;2.80;1.08;;;10.00;99.90;;;;;;5063864;28;20028;-73
2023/10/31 05:57:04;;;;;;;4.30;1.15;;;10.00;99.90;;;;;;5046626;28;20021;-72
2023/10/31 05:59:29;;;;;;;3.60;0.55;;;10.00;99.90;;;;;;5033872;28;20086;-73
2023/10/31 06:01:55;;;;;;;3.85;0.50;;;10.00;99.90;;;;;;5044072;28;20401;-73
2023/10/31 06:04:20;;;;;;;7.65;0.50;;;10.00;99.90;;;;;;5049534;28;20406;-74
2023/10/31 06:06:46;;;;;;;1.27;0.30;;;10.00;99.90;;;;;;5032278;28;20467;-72
2023/10/31 06:09:14;;;;;;;3.78;0.45;;;9.90;99.90;;;;;;5035736;28;20494;-73
2023/10/31 06:11:42;;;;;;;2.88;0.40;;;9.90;99.90;;;;;;5038270;28;20410;-74
2023/10/31 06:14:07;;;;;;;1.02;0.30;;;9.90;99.90;;;;;;5038939;28;20039;-75
2023/10/31 06:16:33;;;;;;;2.78;0.30;;;9.90;99.90;;;;;;5042607;28;20045;-73
2023/10/31 06:18:58;;;;;;;0.45;0.13;;;9.90;99.90;;;;;;5050605;28;20033;-74
2023/10/31 06:21:24;;;;;;;4.55;0.40;;;9.90;99.90;;;;;;5049651;28;20359;-73
2023/10/31 06:23:50;;;;;;;4.63;0.30;;;9.90;99.90;;;;;;5036059;28;20483;-75
2023/10/31 06:26:15;;;;;;;3.20;0.35;;;9.90;99.90;;;;;;5039466;28;20040;-74
2023/10/31 06:28:41;;;;;;;0.68;0.20;;;9.90;99.90;;;;;;5050500;28;20033;-74
2023/10/31 06:31:07;;;;;;;2.78;0.30;;;9.90;99.90;;;;;;5035356;28;20057;-73
2023/10/31 06:33:32;;;;;;;0.70;0.30;;;9.80;99.90;;;;;;5051865;28;21089;-73
2023/10/31 06:35:58;;;;;;;4.82;0.60;;;9.80;99.90;;;;;;5056831;28;20040;-74
2023/10/31 06:38:24;;;;;;;3.60;0.40;;;9.80;99.90;;;;;;5054215;28;20037;-77
2023/10/31 06:40:50;;;;;;;2.47;0.40;;;9.80;99.90;;;;;;5040124;28;20489;-73
2023/10/31 06:43:15;;;;;;;0.73;0.32;;;9.80;99.90;;;;;;5040146;28;20035;-74
2023/10/31 06:45:41;;;;;;;4.85;0.40;;;9.70;99.90;;;;;;5057964;28;20033;-74
2023/10/31 06:48:09;;;;;;;4.20;0.30;;;9.70;99.90;;;;;;5059222;28;20061;-75
2023/10/31 06:50:34;;;;;;;2.88;0.20;;;9.70;99.90;;;;;;5060359;28;20050;-73
2023/10/31 06:53:00;;;;;;;2.17;0.60;;;9.70;99.90;;;;;;5053802;28;20066;-74
2023/10/31 06:55:25;;;;;;;2.72;0.20;;;9.70;99.90;;;;;;5036228;28;20021;-74
2023/10/31 06:57:51;;;;;;;4.00;0.40;;;9.70;99.90;;;;;;5061807;28;20120;-73
2023/10/31 07:00:17;;;;;;;0.98;0.32;;;9.80;99.90;;;;;;5040306;28;20044;-73
2023/10/31 07:02:42;;;;;;;3.45;0.45;;;9.80;99.90;;;;;;5058300;28;20035;-73
2023/10/31 07:05:08;;;;;;;2.30;0.43;;;9.80;99.90;;;;;;5042790;28;20472;-74
2023/10/31 07:07:33;;;;;;;3.92;0.38;;;9.90;99.90;;;;;;5038107;28;20086;-74
2023/10/31 07:09:59;;;;;;;1.98;0.30;;;9.90;99.90;;;;;;5040815;28;20029;-73
2023/10/31 07:12:25;;;;;;;6.82;0.77;;;9.90;99.90;;;;;;5039373;28;20045;-73
2023/10/31 07:14:50;;;;;;;5.68;0.40;;;9.90;99.90;;;;;;5058680;28;20039;-75
2023/10/31 07:17:16;;;;;;;1.52;0.20;;;10.00;99.90;;;;;;5035748;28;20056;-73
2023/10/31 07:19:41;;;;;;;3.42;0.30;;;10.00;99.90;;;;;;5042448;28;20033;-73
2023/10/31 07:22:07;;;;;;;4.22;0.30;;;10.00;99.90;;;;;;5036792;28;20504;-74
2023/10/31 07:24:32;;;;;;;4.25;0.45;;;10.00;99.90;;;;;;5040436;28;20125;-73
2023/10/31 07:26:58;;;;;;;1.88;0.20;;;10.00;99.90;;;;;;5062680;28;20017;-74
2023/10/31 07:29:24;;;;;;;2.72;1.23;;;10.10;99.90;;;;;;5042287;28;20035;-73
2023/10/31 07:31:49;;;;;;;2.50;0.20;;;10.10;99.90;;;;;;5060649;28;20025;-74
2023/10/31 07:34:15;;;;;;;4.20;0.45;;;10.20;99.90;;;;;;5039269;28;20060;-74
2023/10/31 07:36:41;;;;;;;3.80;0.38;;;10.30;99.90;;;;;;5033212;28;20035;-74
2023/10/31 07:39:07;;;;;;;1.38;0.38;;;10.30;99.90;;;;;;5044287;28;20104;-72
2023/10/31 07:41:33;;;;;;;1.90;0.40;;;10.30;99.90;;;;;;5060956;28;20047;-74
2023/10/31 07:43:58;;;;;;;2.72;0.65;;;10.40;99.90;;;;;;5056211;28;20482;-74
2023/10/31 07:46:24;;;;;;;2.60;0.75;;;10.40;99.90;;;;;;5040228;28;20097;-75
2023/10/31 07:48:50;;;;;;;1.27;0.50;;;10.40;99.90;;;;;;5041991;28;20488;-74
2023/10/31 07:51:15;;;;;;;3.78;0.63;;;10.40;99.90;;;;;;5038840;28;20114;-73
2023/10/31 07:53:41;;;;;;;2.60;0.68;;;10.50;99.90;;;;;;5038659;28;20493;-74
2023/10/31 07:56:23;;;;;;;2.35;0.60;;;10.50;99.90;;;;;;5037196;28;20032;-75
2023/10/31 07:58:49;;;;;;;2.78;0.80;;;10.50;99.90;;;;;;5030256;28;20052;-74
2023/10/31 08:01:19;;;;;;;2.85;0.68;;;10.60;99.90;;;;;;5037634;28;20029;-76
2023/10/31 08:03:48;;;;;;;2.25;0.70;;;10.60;99.90;;;;;;5035639;28;20555;-74
2023/10/31 08:06:14;;;;;;;6.75;1.13;;;10.60;99.90;;;;;;5032143;28;20028;-76
2023/10/31 08:08:40;;;;;;;4.80;0.85;;;10.60;99.90;;;;;;5036022;28;20566;-75
2023/10/31 08:11:09;;;;;;;3.50;1.10;;;10.60;99.90;;;;;;5055208;28;20032;-74
2023/10/31 08:13:35;;;;;;;2.28;0.68;;;10.70;99.90;;;;;;5030325;28;20037;-75
2023/10/31 08:16:01;;;;;;;2.35;1.08;;;10.70;99.90;;;;;;5039898;28;20544;-74
2023/10/31 08:18:26;;;;;;;6.20;0.93;;;10.70;99.90;;;;;;5038052;28;20138;-75
2023/10/31 08:20:52;;;;;;;2.72;1.00;;;10.70;99.90;;;;;;5059609;28;20428;-73
2023/10/31 08:23:18;;;;;;;4.45;1.42;;;10.80;99.90;;;;;;5030970;28;20036;-74
2023/10/31 08:25:43;;;;;;;3.53;1.20;;;10.90;99.90;;;;;;5036226;28;20037;-75
2023/10/31 08:28:09;;;;;;;8.13;1.42;;;10.90;99.90;;;;;;5036244;28;20385;-75
2023/10/31 08:30:35;;;;;;;3.75;1.13;;;10.90;99.90;;;;;;5021803;28;20100;-73
2023/10/31 08:33:01;;;;;;;5.57;1.52;;;10.90;99.90;;;;;;5042056;28;20103;-75
2023/10/31 08:35:26;;;;;;;3.83;1.27;;;11.00;99.90;;;;;;5035576;28;20490;-74
2023/10/31 08:37:52;;;;;;;5.43;1.40;;;11.00;99.90;;;;;;5034826;28;20029;-75
2023/10/31 08:40:18;;;;;;;4.15;1.23;;;11.00;99.90;;;;;;5040525;28;20032;-74
2023/10/31 08:42:43;;;;;;;4.90;1.67;;;11.10;99.90;;;;;;5034360;28;20039;-76
2023/10/31 08:45:09;;;;;;;4.75;2.03;;;11.20;99.90;;;;;;5038569;28;20024;-74
2023/10/31 08:47:35;;;;;;;6.60;1.98;;;11.20;99.90;;;;;;5035842;28;20032;-75
2023/10/31 08:50:00;;;;;;;6.53;2.13;;;11.30;99.90;;;;;;5057565;28;20760;-74
2023/10/31 08:52:26;;;;;;;8.20;2.55;;;11.30;99.90;;;;;;5040754;28;20558;-74
2023/10/31 08:54:51;;;;;;;8.90;1.80;;;11.40;99.90;;;;;;5056719;28;20044;-74
2023/10/31 08:57:17;;;;;;;7.10;2.25;;;11.40;99.90;;;;;;5036244;28;20025;-75
2023/10/31 08:59:43;;;;;;;5.00;2.10;;;11.40;99.90;;;;;;5041771;28;20067;-75
2023/10/31 09:02:09;;;;;;;9.48;3.92;;;11.50;99.90;;;;;;5038822;28;20067;-74
2023/10/31 09:04:35;;;;;;;6.35;2.30;;;11.60;99.90;;;;;;5036092;28;20032;-75
2023/10/31 09:07:00;;;;;;;6.60;2.53;;;11.60;99.90;;;;;;5035871;28;20029;-75
2023/10/31 09:09:26;;;;;;;9.48;2.28;;;11.60;99.90;;;;;;5036845;28;20124;-73
2023/10/31 09:11:52;;;;;;;5.80;2.17;;;11.70;99.90;;;;;;5056924;28;20039;-74
2023/10/31 09:14:17;;;;;;;11.25;2.53;;;11.70;99.90;;;;;;5051017;28;20039;-75
2023/10/31 09:16:43;;;;;;;7.07;2.63;;;11.80;99.90;;;;;;5056601;28;20048;-75
2023/10/31 09:19:09;;;;;;;10.88;2.20;;;11.80;99.90;;;;;;5037421;28;20743;-74
2023/10/31 09:21:34;;;;;;;8.15;1.75;;;12.00;99.90;;;;;;5038183;28;20517;-73
2023/10/31 09:24:00;;;;;;;10.60;2.72;;;12.10;99.90;;;;;;5053703;28;20127;-74
2023/10/31 09:26:25;;;;;;;4.65;1.85;;;12.20;99.90;;;;;;5034736;28;20029;-75
2023/10/31 09:28:51;;;;;;;5.30;2.20;;;12.20;99.90;;;;;;5041170;28;20119;-74
2023/10/31 09:31:20;;;;;;;11.75;2.42;;;12.10;99.90;;;;;;5037024;28;20029;-73
2023/10/31 09:33:46;;;;;;;5.30;2.53;;;12.10;99.90;;;;;;5039676;28;20028;-74
2023/10/31 09:36:13;;;;;;;10.55;2.30;;;12.10;99.90;;;;;;5057342;28;20036;-74
2023/10/31 09:38:39;;;;;;;7.40;2.00;;;12.10;99.90;;;;;;5053433;28;20371;-72
2023/10/31 09:41:05;;;;;;;10.50;2.83;;;12.20;99.90;;;;;;5056339;28;20501;-75
2023/10/31 09:43:30;;;;;;;10.43;1.98;;;12.30;99.90;;;;;;5038389;28;20048;-74
2023/10/31 09:45:57;;;;;;;10.32;2.67;;;12.30;99.90;;;;;;5032469;28;20032;-74
2023/10/31 09:48:23;;;;;;;6.97;2.33;;;12.20;99.90;;;;;;5042113;28;20059;-73
2023/10/31 09:50:50;;;;;;;7.95;2.88;;;12.20;99.90;;;;;;5063214;28;20036;-73
2023/10/31 09:53:18;;;;;;;15.00;2.28;;;12.10;99.90;;;;;;5042328;28;20512;-73
2023/10/31 09:55:46;;;;;;;7.43;2.08;;;12.00;99.90;;;;;;5041521;28;20037;-73
2023/10/31 09:58:12;;;;;;;8.98;1.90;;;12.00;99.90;;;;;;5037370;28;20029;-74
2023/10/31 10:00:40;;;;;;;10.95;3.33;;;12.00;99.90;;;;;;5040090;28;20078;-73
2023/10/31 10:03:08;;;;;;;6.80;1.95;;;12.00;99.90;;;;;;5053845;28;20044;-74
2023/10/31 10:05:35;;;;;;;9.55;2.75;;;12.00;99.90;;;;;;5042874;28;20422;-73
2023/10/31 10:08:00;;;;;;;9.65;2.50;;;12.10;99.90;;;;;;5055477;28;20029;-73
2023/10/31 10:10:26;;;;;;;8.70;3.30;;;12.20;99.90;;;;;;5059010;28;20662;-74
2023/10/31 10:12:52;;;;;;;9.02;3.10;;;12.30;99.90;;;;;;5060070;28;20091;-73
2023/10/31 10:15:18;;;;;;;7.03;2.55;;;12.40;99.90;;;;;;5061106;28;20045;-72
2023/10/31 10:17:53;;;;;;;9.98;2.88;;;12.40;99.90;;;;;;5038360;28;20494;-73
2023/10/31 10:20:19;;;;;;;6.65;3.08;;;12.50;99.90;;;;;;5044792;28;20038;-74
2023/10/31 10:22:45;;;;;;;8.50;3.25;;;12.60;99.90;;;;;;5043908;28;20028;-76
2023/10/31 10:25:16;;;;;;;8.95;2.60;;;12.60;99.90;;;;;;5056771;28;20091;-75
2023/10/31 10:27:43;;;;;;;9.55;2.40;;;12.60;99.90;;;;;;5041457;28;20043;-74
2023/10/31 10:30:09;;;;;;;11.35;2.38;;;12.70;99.90;;;;;;5040758;28;20033;-74
2023/10/31 10:32:34;;;;;;;10.25;2.58;;;12.70;99.90;;;;;;5060086;28;20414;-74
2023/10/31 10:35:00;;;;;;;6.68;2.15;;;12.80;99.90;;;;;;5040310;28;20044;-73
2023/10/31 10:37:27;;;;;;;8.15;1.40;;;12.70;99.90;;;;;;5039483;28;20645;-73
2023/10/31 10:39:56;;;;;;;6.10;1.30;;;12.80;99.90;;;;;;5042201;28;20029;-74
2023/10/31 10:42:32;;;;;;;7.20;2.20;;;12.90;99.90;;;;;;5040074;28;20037;-73
2023/10/31 10:45:02;;;;;;;8.68;1.52;;;13.00;99.90;;;;;;5036442;28;20043;-75
2023/10/31 10:47:29;;;;;;;4.32;1.55;;;13.40;99.90;;;;;;5035098;28;20575;-74
2023/10/31 10:49:59;;;;;;;6.82;1.30;;;13.80;99.90;;;;;;5035887;28;20076;-73
2023/10/31 10:52:38;;;;;;;4.97;1.58;;;14.20;99.90;;;;;;5034703;28;20029;-75
2023/10/31 10:55:16;;;;;;;6.70;1.40;;;14.30;99.90;;;;;;5045916;28;20044;-75
2023/10/31 10:57:51;;;;;;;2.97;1.27;;;14.20;99.90;;;;;;5035425;28;20289;-74
2023/10/31 11:00:19;;;;;;;4.50;1.20;;;14.00;99.90;;;;;;5045261;28;20072;-76
2023/10/31 11:02:45;;;;;;;10.63;1.77;;;13.70;99.90;;;;;;5034572;28;20021;-75
2023/10/31 11:05:13;;;;;;;5.13;1.48;;;13.50;99.90;;;;;;5038466;28;20017;-74
2023/10/31 11:07:40;;;;;;;5.28;1.00;;;13.40;99.90;;;;;;5046645;28;20089;-74
2023/10/31 11:10:07;;;;;;;7.57;1.33;;;13.20;99.90;;;;;;5048132;28;20433;-73
2023/10/31 11:12:34;;;;;;;5.95;1.30;;;13.10;99.90;;;;;;5032793;28;20060;-74
2023/10/31 11:15:02;;;;;;;3.58;1.30;;;13.10;99.90;;;;;;5027152;28;20028;-74
2023/10/31 11:17:31;;;;;;;6.22;1.42;;;13.10;99.90;;;;;;5034125;28;20561;-73
2023/10/31 11:19:58;;;;;;;7.50;2.13;;;13.10;99.90;;;;;;5039803;28;20025;-74
2023/10/31 11:22:24;;;;;;;7.55;2.33;;;13.20;99.90;;;;;;5029675;28;20429;-73
2023/10/31 11:24:50;;;;;;;9.52;1.90;;;13.20;99.90;;;;;;5045166;28;20048;-76
2023/10/31 11:27:18;;;;;;;7.75;1.52;;;13.20;99.90;;;;;;5027619;28;20554;-74
2023/10/31 11:29:44;;;;;;;5.32;2.08;;;13.20;99.90;;;;;;5024001;28;20051;-73
2023/10/31 11:32:11;;;;;;;8.73;2.30;;;13.20;99.90;;;;;;5048412;28;20778;-73
2023/10/31 11:34:41;;;;;;;7.78;2.40;;;13.20;99.90;;;;;;5045716;28;20112;-75
2023/10/31 11:37:29;;;;;;;8.43;3.03;;;13.20;99.90;;;;;;5039826;28;20552;-75
2023/10/31 11:40:13;;;;;;;6.43;3.25;;;13.20;99.90;;;;;;5035934;28;20517;-74
2023/10/31 11:42:38;;;;;;;12.38;4.40;;;13.10;99.90;;;;;;5029053;28;20517;-74
2023/10/31 11:45:05;;;;;;;7.50;4.43;;;13.10;99.90;;;;;;5036848;28;20041;-73
2023/10/31 11:47:51;;;;;;;9.85;3.95;;;13.10;99.90;;;;;;5036469;28;20136;-75
2023/10/31 11:50:17;;;;;;;9.77;4.95;;;13.10;99.90;;;;;;5044899;28;20037;-74
2023/10/31 11:52:43;;;;;;;10.60;5.40;;;13.10;99.90;;;;;;5039236;28;20037;-73
2023/10/31 11:55:12;;;;;;;13.27;6.20;;;13.20;99.90;;;;;;5047168;28;20037;-73
2023/10/31 11:57:41;;;;;;;16.83;6.05;;;13.10;99.90;;;;;;5047717;28;20100;-74
2023/10/31 12:00:19;;;;;;;10.98;5.57;;;13.10;99.90;;;;;;5036088;28;20021;-75
2023/10/31 12:03:00;;;;;;;12.23;6.10;;;12.90;99.90;;;;;;5033320;28;20040;-75
2023/10/31 12:05:26;;;;;;;;;;;12.90;99.90;;;;;;5034857;28;20116;-74
2023/10/31 12:07:51;;;;;;;11.32;5.43;;;12.80;99.90;;;;;;5047783;28;20420;-76
2023/10/31 12:10:25;;;;;;;18.23;6.78;;;12.80;99.90;;;;;;5043049;28;20098;-76
2023/10/31 12:12:51;;;;;;;13.50;5.93;;;12.80;99.90;;;;;;5047900;28;20052;-74
2023/10/31 12:15:16;;;;;;;15.30;5.97;;;12.80;99.90;;;;;;5044817;28;20498;-73
2023/10/31 12:17:42;;;;;;;14.23;5.70;;;12.80;99.90;;;;;;5028600;28;20055;-75
2023/10/31 12:20:09;;;;;;;16.42;6.28;;;12.80;99.90;;;;;;5047659;28;20089;-75
2023/10/31 12:22:35;;;;;;;11.70;5.47;;;12.80;99.90;;;;;;5032559;28;20040;-72
2023/10/31 12:25:02;;;;;;;17.77;6.32;;;12.90;99.90;;;;;;5046612;28;20029;-74
2023/10/31 12:27:45;;;;;;;13.63;6.32;;;12.90;99.90;;;;;;5044433;28;20048;-76
2023/10/31 12:30:16;;;;;;;14.63;6.20;;;12.90;99.90;;;;;;5033437;28;20025;-74
2023/10/31 12:32:43;;;;;;;15.15;5.63;;;12.90;99.90;;;;;;5032477;28;20037;-75
2023/10/31 12:35:15;;;;;;;11.57;5.63;;;13.00;99.90;;;;;;5045845;28;20047;-74
2023/10/31 12:37:44;;;;;;;8.88;4.47;;;12.90;99.90;;;;;;5054969;28;20025;-75
2023/10/31 12:40:12;;;;;;;12.40;4.63;;;12.90;99.90;;;;;;5036359;28;20025;-73
2023/10/31 12:42:38;;;;;;;9.43;4.13;;;12.80;99.90;;;;;;5054364;28;20119;-75